createdAt,value
2023-02-20T00:02:16.703Z,7.56
2023-02-20T00:08:04.096Z,7.73
2023-02-20T00:13:50.890Z,7.55
2023-02-20T00:19:37.834Z,7.52
2023-02-20T00:25:24.862Z,7.68
2023-02-20T00:31:18.852Z,7.82
2023-02-20T00:37:05.875Z,7.84
2023-02-20T00:42:53.353Z,7.84
2023-02-20T00:48:40.235Z,7.68
2023-02-20T00:54:46.926Z,7.66
2023-02-20T01:00:33.674Z,7.47
2023-02-20T01:06:24.501Z,7.49
2023-02-20T01:12:11.748Z,7.64
2023-02-20T01:17:58.992Z,7.61
2023-02-20T01:23:46.019Z,7.43
2023-02-20T01:29:36.108Z,7.44
2023-02-20T01:35:31.978Z,7.45
2023-02-20T01:41:20.140Z,7.52
2023-02-20T01:47:08.327Z,7.65
2023-02-20T01:52:58.707Z,7.75
2023-02-20T01:58:49.939Z,7.76
2023-02-20T02:04:39.511Z,7.87
2023-02-20T02:10:31.568Z,7.83
2023-02-20T02:16:21.356Z,7.96
2023-02-20T02:22:46.535Z,8.01
2023-02-20T02:29:05.945Z,8.00
2023-02-20T02:34:59.606Z,7.98
2023-02-20T02:40:57.725Z,8.13
2023-02-20T02:46:55.315Z,8.33
2023-02-20T02:52:49.225Z,8.14
2023-02-20T02:58:36.240Z,8.25
2023-02-20T03:04:26.644Z,8.41
2023-02-20T03:10:20.816Z,8.39
2023-02-20T03:16:09.361Z,8.33
2023-02-20T03:21:58.330Z,8.22
2023-02-20T03:27:59.664Z,8.38
2023-02-20T03:34:18.255Z,8.45
2023-02-20T03:40:30.142Z,8.38
2023-02-20T03:46:24.792Z,8.50
2023-02-20T03:52:13.276Z,8.39
2023-02-20T03:58:05.854Z,8.47
2023-02-20T04:03:57.881Z,8.49
2023-02-20T04:09:46.988Z,8.59
2023-02-20T04:15:34.352Z,8.64
2023-02-20T04:21:37.573Z,8.52
2023-02-20T04:27:24.585Z,8.56
2023-02-20T04:33:16.699Z,8.44
2023-02-20T04:39:05.090Z,8.41
2023-02-20T04:44:53.176Z,8.45
2023-02-20T04:50:41.319Z,8.47
2023-02-20T04:56:29.106Z,8.51
2023-02-20T05:02:16.306Z,8.47
2023-02-20T05:08:06.248Z,8.29
2023-02-20T05:13:53.060Z,8.31
2023-02-20T05:19:39.697Z,8.32
2023-02-20T05:25:26.334Z,8.43
2023-02-20T05:31:16.296Z,8.43
2023-02-20T05:37:04.241Z,8.44
2023-02-20T05:42:51.056Z,8.49
2023-02-20T05:48:37.701Z,8.47
2023-02-20T05:54:25.010Z,8.59
2023-02-20T06:00:12.334Z,8.60
2023-02-20T06:05:59.042Z,8.49
2023-02-20T06:11:51.324Z,8.51
2023-02-20T06:17:38.163Z,8.52
2023-02-20T06:23:24.991Z,8.44
2023-02-20T06:29:12.391Z,8.57
2023-02-20T06:34:59.184Z,8.59
2023-02-20T06:40:46.025Z,8.67
2023-02-20T06:46:33.150Z,8.52
2023-02-20T06:52:19.981Z,8.54
2023-02-20T06:58:06.650Z,8.70
2023-02-20T07:03:56.444Z,8.63
2023-02-20T07:09:44.628Z,8.56
2023-02-20T07:15:31.830Z,8.58
2023-02-20T07:21:18.990Z,8.57
2023-02-20T07:27:09.479Z,8.55
2023-02-20T07:32:58.887Z,8.49
2023-02-20T07:39:26.513Z,8.72
2023-02-20T07:45:38.712Z,8.88
2023-02-20T07:58:14.024Z,8.94
2023-02-20T08:04:13.531Z,10.11
2023-02-20T08:10:00.354Z,10.90
2023-02-20T08:15:48.212Z,11.43
2023-02-20T08:21:35.091Z,10.69
2023-02-20T08:27:22.442Z,10.25
2023-02-20T08:33:09.426Z,9.87
2023-02-20T08:38:57.376Z,9.85
2023-02-20T08:44:44.185Z,9.79
2023-02-20T08:50:30.951Z,9.63
2023-02-20T08:56:21.395Z,9.48
2023-02-20T09:02:24.827Z,9.77
2023-02-20T09:08:17.446Z,9.81
2023-02-20T09:14:04.460Z,10.00
2023-02-20T09:19:51.275Z,10.04
2023-02-20T09:25:40.305Z,10.02
2023-02-20T09:31:27.262Z,10.22
2023-02-20T09:37:15.780Z,10.32
2023-02-20T09:43:17.899Z,10.43
2023-02-20T09:49:15.654Z,10.46
2023-02-20T09:55:14.144Z,10.35
2023-02-20T10:01:03.203Z,10.56
2023-02-20T10:06:53.516Z,10.56
2023-02-20T10:12:59.418Z,10.70
2023-02-20T10:19:01.105Z,10.90
2023-02-20T10:24:56.191Z,11.05
2023-02-20T10:30:46.624Z,11.03
2023-02-20T10:37:06.513Z,11.30
2023-02-20T10:43:03.307Z,11.66
2023-02-20T10:48:57.296Z,11.69
2023-02-20T10:54:48.918Z,11.56
2023-02-20T11:00:46.222Z,11.80
2023-02-20T11:06:38.527Z,11.96
2023-02-20T11:12:42.524Z,11.75
2023-02-20T11:18:35.230Z,11.81
2023-02-20T11:24:29.418Z,11.73
2023-02-20T11:30:38.777Z,11.88
2023-02-20T11:36:28.303Z,12.07
2023-02-20T11:42:20.395Z,12.23
2023-02-20T11:48:16.037Z,12.60
2023-02-20T11:54:21.665Z,12.64
2023-02-20T12:00:17.549Z,12.85
2023-02-20T12:06:41.905Z,12.68
2023-02-20T12:12:32.678Z,12.78
2023-02-20T12:18:49.863Z,12.63
2023-02-20T12:24:46.598Z,13.08
2023-02-20T12:30:47.924Z,13.04
2023-02-20T12:36:59.735Z,12.90
2023-02-20T12:43:11.349Z,12.71
2023-02-20T12:48:58.130Z,12.62
2023-02-20T12:54:50.646Z,12.53
2023-02-20T13:00:41.594Z,12.34
2023-02-20T13:07:01.604Z,12.67
2023-02-20T13:12:54.210Z,12.63
2023-02-20T13:19:14.244Z,12.99
2023-02-20T13:25:33.452Z,13.04
2023-02-20T13:31:44.188Z,13.29
2023-02-20T13:37:34.059Z,13.15
2023-02-20T13:43:24.929Z,12.93
2023-02-20T13:49:11.732Z,13.06
2023-02-20T13:55:10.745Z,13.07
2023-02-20T14:00:57.555Z,13.03
2023-02-20T14:06:58.384Z,12.98
2023-02-20T14:12:55.354Z,13.22
2023-02-20T14:18:42.403Z,13.21
2023-02-20T14:24:29.760Z,13.55
2023-02-20T14:30:23.170Z,13.61
2023-02-20T14:36:36.032Z,13.48
2023-02-20T14:42:25.343Z,13.75
2023-02-20T14:48:26.911Z,13.79
2023-02-20T14:54:24.701Z,13.71
2023-02-20T15:00:23.520Z,13.48
2023-02-20T15:06:19.713Z,13.51
2023-02-20T15:19:52.736Z,13.72
2023-02-20T15:25:40.019Z,13.66
2023-02-20T15:31:47.082Z,13.75
2023-02-20T15:38:34.845Z,13.96
2023-02-20T15:44:27.858Z,14.02
2023-02-20T15:50:15.506Z,13.88
2023-02-20T15:57:02.778Z,13.88
2023-02-20T16:02:56.475Z,14.08
2023-02-20T16:08:47.258Z,14.19
2023-02-20T16:21:27.323Z,13.69
2023-02-20T16:35:20.198Z,13.60
2023-02-20T16:48:49.782Z,13.40
2023-02-20T17:07:49.895Z,13.17
2023-02-20T17:13:36.852Z,12.79
2023-02-20T17:19:23.917Z,12.62
2023-02-20T17:25:24.306Z,12.63
2023-02-20T17:31:34.344Z,12.70
2023-02-20T17:49:34.592Z,12.76
2023-02-20T17:55:31.695Z,12.76
2023-02-20T18:02:23.361Z,12.44
2023-02-20T18:08:16.135Z,12.52
2023-02-20T18:14:10.240Z,12.27
2023-02-20T18:20:04.878Z,12.25
2023-02-20T18:25:51.967Z,12.19
2023-02-20T18:31:38.918Z,12.17
2023-02-20T18:37:28.395Z,12.07
2023-02-20T18:43:15.998Z,12.03
2023-02-20T18:49:08.024Z,12.01
2023-02-20T18:54:55.542Z,12.11
2023-02-20T19:00:42.608Z,12.03
2023-02-20T19:06:40.478Z,11.96
2023-02-20T19:12:27.502Z,12.04
2023-02-20T19:18:14.775Z,11.95
2023-02-20T19:24:05.310Z,11.86
2023-02-20T19:29:52.530Z,11.95
2023-02-20T19:35:39.359Z,11.85
2023-02-20T19:41:26.329Z,11.95
2023-02-20T19:47:15.608Z,11.83
2023-02-20T19:53:02.667Z,11.78
2023-02-20T19:59:40.245Z,11.74
2023-02-20T20:05:38.053Z,11.72
2023-02-20T20:11:25.157Z,11.48
2023-02-20T20:17:24.647Z,11.54
2023-02-20T20:23:58.560Z,11.54
2023-02-20T20:30:00.613Z,11.33
2023-02-20T20:35:50.253Z,11.31
2023-02-20T20:41:44.964Z,11.22
2023-02-20T20:54:21.501Z,11.27
2023-02-20T21:00:21.152Z,11.27
2023-02-20T21:06:16.378Z,11.06
2023-02-20T21:12:03.800Z,11.01
2023-02-20T21:18:47.881Z,11.13
2023-02-20T21:24:25.264Z,11.30
2023-02-20T21:30:17.918Z,11.15
2023-02-20T21:42:54.011Z,10.90
2023-02-20T21:50:06.918Z,11.05
2023-02-20T21:56:07.280Z,11.17
2023-02-20T22:02:26.477Z,11.16
2023-02-20T22:08:32.234Z,11.09
2023-02-20T22:14:38.707Z,11.04
2023-02-20T22:20:49.815Z,10.86
2023-02-20T22:27:46.000Z,10.69
2023-02-20T22:34:01.504Z,10.52
2023-02-20T22:40:06.888Z,10.27
2023-02-20T22:46:12.475Z,10.35
2023-02-20T22:52:17.845Z,10.32
2023-02-20T22:58:23.525Z,10.26
2023-02-20T23:04:43.284Z,10.36
2023-02-20T23:10:56.574Z,10.53
2023-02-20T23:17:03.601Z,10.52
2023-02-20T23:23:20.415Z,10.58
2023-02-20T23:29:33.783Z,10.72
2023-02-20T23:35:51.335Z,10.68
2023-02-20T23:41:57.158Z,10.76
2023-02-20T23:48:05.892Z,10.90
2023-02-20T23:54:16.225Z,10.73
